createdAt,value
2022-09-14T00:02:16.451Z,25.13
2022-09-14T00:04:43.070Z,26.06
2022-09-14T00:07:09.516Z,26.49
2022-09-14T00:09:35.955Z,21.75
2022-09-14T00:12:02.514Z,20.58
2022-09-14T00:14:28.948Z,18.26
2022-09-14T00:16:55.411Z,18.16
2022-09-14T00:19:23.916Z,19.68
2022-09-14T00:21:52.110Z,20.00
2022-09-14T00:24:18.747Z,18.40
2022-09-14T00:26:45.107Z,19.23
2022-09-14T00:29:11.553Z,19.96
2022-09-14T00:31:38.536Z,21.29
2022-09-14T00:34:06.335Z,16.70
2022-09-14T00:36:33.639Z,13.98
2022-09-14T00:39:00.772Z,14.71
2022-09-14T00:41:29.323Z,16.56
2022-09-14T00:44:01.561Z,15.32
2022-09-14T00:46:35.261Z,16.65
2022-09-14T00:49:02.137Z,15.65
2022-09-14T00:51:29.775Z,19.96
2022-09-14T00:53:56.244Z,22.21
2022-09-14T00:56:22.692Z,23.48
2022-09-14T00:58:50.144Z,25.79
2022-09-14T01:01:17.008Z,31.82
2022-09-14T01:03:43.593Z,31.57
2022-09-14T01:06:28.769Z,32.67
2022-09-14T01:09:04.488Z,31.48
2022-09-14T01:12:01.743Z,34.88
2022-09-14T01:14:41.783Z,37.28
2022-09-14T01:17:13.607Z,34.98
2022-09-14T01:20:07.972Z,30.15
2022-09-14T01:23:03.820Z,26.73
2022-09-14T01:25:40.551Z,26.19
2022-09-14T01:28:17.042Z,26.41
2022-09-14T01:30:43.442Z,26.13
2022-09-14T01:33:22.211Z,26.51
2022-09-14T01:35:54.266Z,27.94
2022-09-14T01:38:27.322Z,27.50
2022-09-14T01:40:53.717Z,24.55
2022-09-14T01:43:27.643Z,23.92
2022-09-14T01:46:00.926Z,24.95
2022-09-14T01:48:33.153Z,21.68
2022-09-14T01:50:59.877Z,20.38
2022-09-14T01:53:29.205Z,20.75
2022-09-14T01:55:59.078Z,20.75
2022-09-14T01:58:47.175Z,21.25
2022-09-14T02:01:16.923Z,23.51
2022-09-14T02:03:47.914Z,25.04
2022-09-14T02:06:34.297Z,30.12
2022-09-14T02:09:00.762Z,31.22
2022-09-14T02:11:30.064Z,30.27
2022-09-14T02:13:56.481Z,28.84
2022-09-14T02:16:22.937Z,27.89
2022-09-14T02:18:49.819Z,27.24
2022-09-14T02:21:17.880Z,24.71
2022-09-14T02:23:44.344Z,23.14
2022-09-14T02:26:10.808Z,21.30
2022-09-14T02:28:37.275Z,21.43
2022-09-14T02:31:22.278Z,22.41
2022-09-14T02:33:53.189Z,22.58
2022-09-14T02:36:33.955Z,26.22
2022-09-14T02:39:22.479Z,29.43
2022-09-14T02:41:51.445Z,33.41
2022-09-14T02:44:42.541Z,34.22
2022-09-14T02:47:15.349Z,31.06
2022-09-14T02:49:50.898Z,34.92
2022-09-14T02:52:36.819Z,36.88
2022-09-14T02:55:07.563Z,34.18
2022-09-14T02:57:38.645Z,36.01
2022-09-14T03:00:05.425Z,39.38
2022-09-14T03:02:31.836Z,43.39
2022-09-14T03:04:58.475Z,46.37
2022-09-14T03:07:24.865Z,41.59
2022-09-14T03:09:51.489Z,43.77
2022-09-14T03:12:18.269Z,40.15
2022-09-14T03:14:44.667Z,37.42
2022-09-14T03:17:11.038Z,32.54
2022-09-14T03:19:37.468Z,29.42
2022-09-14T03:22:03.860Z,29.51
2022-09-14T03:24:30.951Z,29.42
2022-09-14T03:26:57.315Z,27.45
2022-09-14T03:29:23.788Z,26.66
2022-09-14T03:31:50.317Z,22.07
2022-09-14T03:34:16.792Z,23.46
2022-09-14T03:36:43.165Z,23.30
2022-09-14T03:39:09.548Z,25.67
2022-09-14T03:41:35.924Z,29.00
2022-09-14T03:44:02.552Z,32.33
2022-09-14T03:46:29.079Z,31.24
2022-09-14T03:48:55.754Z,30.07
2022-09-14T03:51:22.495Z,29.52
2022-09-14T03:53:48.901Z,29.68
2022-09-14T03:56:18.033Z,28.64
2022-09-14T03:58:44.848Z,28.71
2022-09-14T04:01:12.747Z,28.84
2022-09-14T04:03:39.158Z,29.78
2022-09-14T04:06:06.063Z,29.33
2022-09-14T04:08:36.528Z,26.55
2022-09-14T04:11:17.060Z,28.64
2022-09-14T04:13:43.573Z,29.34
2022-09-14T04:16:10.015Z,27.87
2022-09-14T04:18:36.517Z,32.17
2022-09-14T04:21:08.214Z,45.69
2022-09-14T04:23:42.314Z,70.68
2022-09-14T04:26:18.706Z,79.05
2022-09-14T04:28:45.214Z,70.54
2022-09-14T04:31:11.972Z,61.66
2022-09-14T04:33:39.403Z,48.90
2022-09-14T04:36:10.687Z,41.27
2022-09-14T04:38:37.482Z,38.50
2022-09-14T04:41:05.192Z,36.53
2022-09-14T04:43:31.652Z,33.29
2022-09-14T04:46:02.867Z,29.91
2022-09-14T04:48:33.584Z,27.96
2022-09-14T04:51:17.014Z,30.72
2022-09-14T04:53:43.924Z,36.43
2022-09-14T04:56:11.367Z,37.77
2022-09-14T04:58:42.158Z,39.07
2022-09-14T05:01:10.386Z,41.29
2022-09-14T05:03:38.845Z,40.83
2022-09-14T05:06:09.886Z,47.21
2022-09-14T05:08:38.510Z,49.79
2022-09-14T05:11:06.025Z,49.42
2022-09-14T05:13:33.088Z,46.04
2022-09-14T05:16:14.099Z,42.32
2022-09-14T05:18:40.576Z,40.79
2022-09-14T05:21:08.722Z,39.60
2022-09-14T05:23:35.252Z,39.37
2022-09-14T05:26:01.781Z,44.43
2022-09-14T05:28:28.336Z,49.25
2022-09-14T05:30:55.023Z,51.89
2022-09-14T05:33:21.880Z,58.52
2022-09-14T05:35:48.879Z,60.70
2022-09-14T05:38:15.416Z,61.81
2022-09-14T05:40:41.868Z,62.53
2022-09-14T05:43:08.445Z,75.17
2022-09-14T05:45:35.034Z,70.89
2022-09-14T05:48:04.673Z,70.60
2022-09-14T05:50:32.235Z,74.99
2022-09-14T05:52:58.920Z,75.42
2022-09-14T05:55:25.466Z,78.53
2022-09-14T05:57:51.946Z,85.71
2022-09-14T06:00:18.789Z,91.73
2022-09-14T06:02:49.337Z,96.86
2022-09-14T06:05:16.307Z,99.82
2022-09-14T06:07:42.767Z,85.23
2022-09-14T06:10:09.485Z,80.49
2022-09-14T06:12:35.936Z,89.10
2022-09-14T06:15:02.338Z,91.12
2022-09-14T06:17:31.859Z,91.21
2022-09-14T06:20:02.233Z,100.00
2022-09-14T06:22:31.157Z,100.00
2022-09-14T06:24:57.728Z,100.00
2022-09-14T06:27:24.116Z,100.00
2022-09-14T06:29:53.677Z,100.00
2022-09-14T06:32:20.461Z,100.00
2022-09-14T06:34:46.865Z,100.00
2022-09-14T06:37:13.245Z,100.00
2022-09-14T06:39:39.635Z,100.00
2022-09-14T06:42:06.477Z,100.00
2022-09-14T06:44:32.892Z,100.00
2022-09-14T06:46:59.255Z,100.00
2022-09-14T06:49:25.678Z,100.00
2022-09-14T06:51:54.598Z,100.00
2022-09-14T06:54:20.979Z,100.00
2022-09-14T06:56:47.381Z,100.00
2022-09-14T06:59:15.403Z,100.00
2022-09-14T07:01:41.952Z,92.06
2022-09-14T07:04:08.329Z,84.73
2022-09-14T07:06:48.482Z,78.81
2022-09-14T07:09:15.211Z,79.77
2022-09-14T07:11:42.085Z,87.05
2022-09-14T07:14:08.630Z,95.46
2022-09-14T07:16:35.814Z,100.00
2022-09-14T07:19:03.728Z,100.00
2022-09-14T07:21:31.017Z,100.00
2022-09-14T07:23:57.662Z,100.00
2022-09-14T07:26:28.989Z,100.00
2022-09-14T07:29:00.232Z,95.71
2022-09-14T07:31:28.447Z,87.76
2022-09-14T07:33:56.134Z,66.58
2022-09-14T07:36:23.194Z,52.66
2022-09-14T07:39:01.290Z,49.03
2022-09-14T07:41:28.726Z,49.64
2022-09-14T07:43:57.176Z,47.79
2022-09-14T07:46:23.827Z,28.07
2022-09-14T07:48:54.980Z,15.60
2022-09-14T07:51:22.125Z,14.95
2022-09-14T07:53:48.508Z,13.18
2022-09-14T07:56:16.551Z,18.81
2022-09-14T07:58:43.487Z,26.50
2022-09-14T08:01:14.902Z,24.92
2022-09-14T08:03:42.914Z,23.94
2022-09-14T08:06:14.947Z,21.14
2022-09-14T08:08:43.629Z,21.34
2022-09-14T08:11:13.530Z,17.47
2022-09-14T08:13:42.964Z,6.66
2022-09-14T08:16:09.462Z,7.51
2022-09-14T08:18:36.456Z,7.58
2022-09-14T08:21:07.882Z,7.59
2022-09-14T08:23:34.592Z,7.32
2022-09-14T08:26:08.959Z,7.52
2022-09-14T08:28:36.353Z,15.96
2022-09-14T08:31:07.224Z,21.54
2022-09-14T08:33:34.313Z,21.24
2022-09-14T08:36:00.875Z,18.90
2022-09-14T08:38:27.345Z,20.38
2022-09-14T08:40:53.798Z,19.10
2022-09-14T08:43:21.240Z,20.03
2022-09-14T08:45:47.647Z,16.30
2022-09-14T08:48:29.228Z,14.55
2022-09-14T08:50:55.630Z,9.26
2022-09-14T08:53:22.357Z,2.70
2022-09-14T08:55:49.931Z,2.70
2022-09-14T08:58:50.876Z,1.86
2022-09-14T09:01:25.762Z,0.25
2022-09-14T09:04:23.178Z,0.00
2022-09-14T09:06:49.578Z,0.00
2022-09-14T09:09:32.673Z,0.00
2022-09-14T09:11:59.102Z,0.00
2022-09-14T09:14:27.425Z,0.00
2022-09-14T09:16:55.026Z,5.90
2022-09-14T09:19:28.584Z,8.44
2022-09-14T09:21:55.251Z,6.54
2022-09-14T09:24:31.109Z,10.90
2022-09-14T09:26:59.595Z,9.57
2022-09-14T09:29:25.960Z,11.47
2022-09-14T09:31:53.616Z,8.87
2022-09-14T09:34:28.780Z,6.54
2022-09-14T09:37:00.783Z,4.34
2022-09-14T09:39:29.091Z,40.45
2022-09-14T09:42:03.666Z,39.06
2022-09-14T09:44:30.168Z,42.66
2022-09-14T09:46:59.496Z,41.11
2022-09-14T09:49:35.117Z,40.23
2022-09-14T09:52:10.097Z,46.38
2022-09-14T09:54:36.525Z,51.40
2022-09-14T09:57:04.440Z,52.19
2022-09-14T09:59:35.369Z,52.12
2022-09-14T10:02:25.808Z,53.09
2022-09-14T10:04:59.487Z,92.59
2022-09-14T10:07:26.063Z,88.25
2022-09-14T10:10:01.663Z,92.42
2022-09-14T10:12:28.634Z,96.38
2022-09-14T10:15:12.292Z,100.00
2022-09-14T10:17:38.680Z,100.00
2022-09-14T10:20:05.594Z,100.00
2022-09-14T10:22:36.021Z,100.00
2022-09-14T10:25:13.228Z,100.00
2022-09-14T10:27:43.032Z,100.00
2022-09-14T10:30:14.878Z,100.00
2022-09-14T10:32:43.558Z,100.00
2022-09-14T10:35:14.351Z,100.00
2022-09-14T10:37:59.966Z,100.00
2022-09-14T10:40:56.732Z,100.00
2022-09-14T10:43:38.387Z,100.00
2022-09-14T10:46:05.040Z,100.00
2022-09-14T10:48:43.808Z,100.00
2022-09-14T10:51:59.449Z,100.00
2022-09-14T10:54:27.014Z,100.00
2022-09-14T10:57:14.687Z,100.00
2022-09-14T10:59:58.246Z,100.00
2022-09-14T11:02:43.436Z,100.00
2022-09-14T11:05:24.089Z,100.00
2022-09-14T11:08:13.890Z,100.00
2022-09-14T11:11:09.376Z,100.00
2022-09-14T11:13:59.946Z,100.00
2022-09-14T11:16:58.727Z,100.00
2022-09-14T11:19:47.216Z,100.00
2022-09-14T11:22:35.406Z,100.00
2022-09-14T11:25:06.896Z,100.00
2022-09-14T11:27:50.885Z,100.00
2022-09-14T11:30:35.465Z,100.00
2022-09-14T11:33:04.959Z,100.00
2022-09-14T11:35:34.928Z,100.00
2022-09-14T11:38:03.307Z,100.00
2022-09-14T11:40:33.286Z,100.00
2022-09-14T11:43:03.839Z,100.00
2022-09-14T11:45:41.165Z,100.00
2022-09-14T11:48:41.474Z,100.00
2022-09-14T11:51:22.986Z,100.00
2022-09-14T11:53:50.724Z,100.00
2022-09-14T11:56:26.781Z,100.00
2022-09-14T11:58:58.177Z,100.00
2022-09-14T12:01:26.622Z,100.00
2022-09-14T12:04:16.988Z,100.00
2022-09-14T12:06:48.583Z,100.00
2022-09-14T12:09:20.052Z,100.00
2022-09-14T12:11:59.140Z,100.00
2022-09-14T12:14:31.489Z,100.00
2022-09-14T12:17:40.765Z,100.00
2022-09-14T12:20:41.356Z,100.00
2022-09-14T12:23:26.884Z,100.00
2022-09-14T12:25:53.261Z,100.00
2022-09-14T12:28:35.423Z,100.00
2022-09-14T12:31:02.804Z,100.00
2022-09-14T12:33:32.142Z,100.00
2022-09-14T12:36:02.329Z,100.00
2022-09-14T12:38:31.544Z,100.00
2022-09-14T12:41:10.164Z,100.00
2022-09-14T12:43:36.750Z,100.00
2022-09-14T12:46:09.231Z,100.00
2022-09-14T12:48:44.847Z,100.00
2022-09-14T12:51:47.720Z,100.00
2022-09-14T12:54:18.552Z,100.00
2022-09-14T12:57:06.356Z,100.00
2022-09-14T12:59:41.465Z,100.00
2022-09-14T13:02:35.915Z,100.00
2022-09-14T13:05:03.461Z,100.00
2022-09-14T13:07:31.945Z,100.00
2022-09-14T13:09:58.648Z,100.00
2022-09-14T13:12:51.596Z,100.00
2022-09-14T13:15:36.837Z,100.00
2022-09-14T13:18:18.557Z,100.00
2022-09-14T13:20:53.525Z,100.00
2022-09-14T13:23:20.902Z,100.00
2022-09-14T13:25:47.369Z,100.00
2022-09-14T13:28:15.092Z,100.00
2022-09-14T13:30:41.832Z,100.00
2022-09-14T13:33:16.961Z,100.00
2022-09-14T13:35:59.982Z,100.00
2022-09-14T13:38:36.667Z,100.00
2022-09-14T13:41:06.568Z,100.00
2022-09-14T13:43:32.961Z,100.00
2022-09-14T13:45:59.401Z,100.00
2022-09-14T13:48:25.871Z,100.00
2022-09-14T13:50:52.315Z,100.00
2022-09-14T13:53:48.345Z,100.00
2022-09-14T13:56:17.611Z,100.00
2022-09-14T13:58:44.600Z,100.00
2022-09-14T14:01:11.045Z,100.00
2022-09-14T14:03:42.178Z,100.00
2022-09-14T14:06:20.557Z,100.00
2022-09-14T14:09:08.288Z,100.00
2022-09-14T14:11:39.675Z,100.00
2022-09-14T14:14:16.247Z,100.00
2022-09-14T14:17:01.967Z,100.00
2022-09-14T14:19:29.528Z,100.00
2022-09-14T14:22:31.903Z,100.00
2022-09-14T14:25:14.495Z,100.00
2022-09-14T14:27:46.305Z,100.00
2022-09-14T14:30:13.246Z,100.00
2022-09-14T14:32:39.610Z,100.00
2022-09-14T14:35:17.003Z,100.00
2022-09-14T14:37:43.380Z,100.00
2022-09-14T14:40:12.299Z,100.00
2022-09-14T14:42:39.010Z,100.00
2022-09-14T14:45:06.169Z,100.00
2022-09-14T14:47:33.371Z,100.00
2022-09-14T14:49:59.896Z,100.00
2022-09-14T14:52:26.342Z,100.00
2022-09-14T14:54:53.856Z,100.00
2022-09-14T14:57:20.254Z,100.00
2022-09-14T14:59:46.980Z,100.00
2022-09-14T15:02:13.376Z,100.00
2022-09-14T15:04:39.738Z,100.00
2022-09-14T15:07:06.410Z,100.00
2022-09-14T15:09:32.791Z,100.00
2022-09-14T15:11:59.261Z,100.00
2022-09-14T15:14:27.659Z,100.00
2022-09-14T15:16:57.813Z,100.00
2022-09-14T15:19:24.544Z,100.00
2022-09-14T15:21:50.988Z,100.00
2022-09-14T15:24:17.446Z,100.00
2022-09-14T15:26:43.875Z,100.00
2022-09-14T15:29:13.144Z,100.00
2022-09-14T15:31:40.576Z,100.00
2022-09-14T15:34:07.072Z,100.00
2022-09-14T15:36:53.069Z,100.00
2022-09-14T15:39:23.886Z,100.00
2022-09-14T15:41:50.485Z,100.00
2022-09-14T15:44:17.195Z,100.00
2022-09-14T15:46:46.905Z,100.00
2022-09-14T15:49:17.968Z,100.00
2022-09-14T15:51:45.257Z,100.00
2022-09-14T15:54:11.774Z,100.00
2022-09-14T15:56:38.412Z,100.00
2022-09-14T15:59:04.881Z,100.00
2022-09-14T16:01:31.583Z,100.00
2022-09-14T16:04:03.025Z,100.00
2022-09-14T16:06:29.514Z,100.00
2022-09-14T16:08:56.008Z,100.00
2022-09-14T16:11:22.437Z,100.00
2022-09-14T16:13:49.784Z,100.00
2022-09-14T16:16:17.170Z,100.00
2022-09-14T16:18:43.588Z,100.00
2022-09-14T16:21:11.793Z,100.00
2022-09-14T16:23:40.317Z,100.00
2022-09-14T16:26:17.410Z,100.00
2022-09-14T16:28:44.657Z,100.00
2022-09-14T16:31:17.058Z,100.00
2022-09-14T16:33:45.225Z,100.00
2022-09-14T16:36:13.484Z,100.00
2022-09-14T16:38:40.065Z,100.00
2022-09-14T16:41:06.697Z,100.00
2022-09-14T16:43:33.497Z,100.00
2022-09-14T16:46:08.049Z,100.00
2022-09-14T16:48:35.523Z,100.00
2022-09-14T16:51:02.336Z,100.00
2022-09-14T16:53:29.996Z,100.00
2022-09-14T16:56:19.048Z,100.00
2022-09-14T16:58:46.087Z,100.00
2022-09-14T17:01:19.648Z,100.00
2022-09-14T17:03:47.679Z,100.00
2022-09-14T17:06:28.562Z,100.00
2022-09-14T17:09:00.926Z,100.00
2022-09-14T17:11:32.081Z,100.00
2022-09-14T17:13:58.688Z,100.00
2022-09-14T17:16:25.970Z,100.00
2022-09-14T17:18:53.525Z,100.00
2022-09-14T17:21:34.953Z,100.00
2022-09-14T17:24:01.689Z,100.00
2022-09-14T17:26:28.099Z,100.00
2022-09-14T17:28:55.514Z,100.00
2022-09-14T17:31:23.711Z,100.00
2022-09-14T17:33:51.826Z,100.00
2022-09-14T17:36:18.264Z,100.00
2022-09-14T17:38:45.013Z,100.00
2022-09-14T17:41:12.253Z,100.00
2022-09-14T17:43:39.206Z,100.00
2022-09-14T17:46:06.311Z,100.00
2022-09-14T17:48:38.576Z,100.00
2022-09-14T17:51:06.263Z,100.00
2022-09-14T17:53:37.258Z,100.00
2022-09-14T17:56:04.552Z,98.32
2022-09-14T17:58:30.965Z,94.47
2022-09-14T18:01:09.163Z,93.45
2022-09-14T18:03:36.891Z,92.75
2022-09-14T18:06:04.728Z,90.06
2022-09-14T18:08:31.188Z,99.97
2022-09-14T18:11:03.732Z,100.00
2022-09-14T18:13:30.133Z,100.00
2022-09-14T18:15:58.098Z,100.00
2022-09-14T18:18:24.701Z,100.00
2022-09-14T18:20:51.129Z,100.00
2022-09-14T18:23:17.592Z,100.00
2022-09-14T18:25:44.134Z,97.87
2022-09-14T18:28:10.520Z,95.95
2022-09-14T18:30:39.402Z,91.05
2022-09-14T18:33:09.383Z,88.54
2022-09-14T18:35:38.971Z,87.17
2022-09-14T18:38:06.596Z,87.94
2022-09-14T18:40:34.536Z,83.98
2022-09-14T18:43:01.095Z,80.53
2022-09-14T18:45:27.590Z,77.67
2022-09-14T18:47:54.003Z,71.54
2022-09-14T18:50:22.969Z,68.07
2022-09-14T18:52:52.735Z,67.60
2022-09-14T18:55:19.335Z,68.83
2022-09-14T18:57:49.191Z,70.61
2022-09-14T19:00:18.601Z,71.51
2022-09-14T19:02:45.956Z,68.99
2022-09-14T19:05:12.427Z,66.04
2022-09-14T19:07:38.795Z,65.42
2022-09-14T19:10:09.751Z,64.16
2022-09-14T19:12:37.949Z,54.94
2022-09-14T19:15:04.730Z,25.73
2022-09-14T19:17:31.131Z,24.65
2022-09-14T19:19:57.526Z,23.40
2022-09-14T19:22:24.057Z,22.32
2022-09-14T19:24:50.492Z,21.06
2022-09-14T19:27:17.577Z,20.17
2022-09-14T19:29:43.986Z,19.66
2022-09-14T19:32:10.382Z,20.67
2022-09-14T19:34:38.255Z,19.42
2022-09-14T19:37:04.677Z,19.00
2022-09-14T19:39:31.094Z,19.29
2022-09-14T19:41:57.520Z,19.60
2022-09-14T19:44:23.890Z,19.35
2022-09-14T19:46:50.504Z,19.53
2022-09-14T19:49:18.866Z,19.71
2022-09-14T19:51:45.555Z,19.76
2022-09-14T19:54:12.167Z,19.70
2022-09-14T19:56:38.846Z,19.74
2022-09-14T19:59:06.132Z,19.68
2022-09-14T20:01:33.288Z,16.74
2022-09-14T20:03:59.990Z,15.69
2022-09-14T20:06:45.700Z,15.48
2022-09-14T20:09:17.357Z,15.54
2022-09-14T20:11:44.954Z,15.93
2022-09-14T20:14:13.691Z,16.31
2022-09-14T20:16:42.893Z,16.96
2022-09-14T20:19:14.053Z,17.08
2022-09-14T20:21:41.335Z,17.13
2022-09-14T20:24:18.435Z,17.60
2022-09-14T20:26:48.745Z,17.69
2022-09-14T20:29:15.637Z,17.71
2022-09-14T20:31:42.124Z,17.78
2022-09-14T20:34:08.532Z,17.39
2022-09-14T20:36:34.914Z,16.99
2022-09-14T20:39:01.474Z,16.62
2022-09-14T20:41:29.577Z,16.57
2022-09-14T20:43:56.109Z,15.59
2022-09-14T20:46:24.396Z,14.65
2022-09-14T20:48:51.181Z,12.86
2022-09-14T20:51:20.632Z,12.27
2022-09-14T20:53:47.280Z,12.54
2022-09-14T20:56:17.224Z,12.07
2022-09-14T20:58:43.688Z,11.82
2022-09-14T21:01:18.898Z,12.00
2022-09-14T21:03:47.583Z,8.29
2022-09-14T21:06:16.308Z,9.98
2022-09-14T21:08:42.820Z,11.68
2022-09-14T21:11:19.481Z,11.95
2022-09-14T21:13:46.249Z,11.99
2022-09-14T21:16:22.284Z,11.93
2022-09-14T21:18:52.569Z,12.76
2022-09-14T21:21:19.576Z,14.48
2022-09-14T21:23:48.251Z,16.53
2022-09-14T21:26:14.869Z,18.42
2022-09-14T21:28:41.586Z,19.71
2022-09-14T21:31:11.127Z,20.27
2022-09-14T21:33:40.015Z,18.99
2022-09-14T21:36:15.465Z,17.43
2022-09-14T21:38:41.886Z,14.34
2022-09-14T21:41:09.240Z,14.55
2022-09-14T21:43:39.877Z,15.13
2022-09-14T21:46:06.932Z,14.88
2022-09-14T21:48:33.596Z,14.66
2022-09-14T21:51:21.683Z,17.71
2022-09-14T21:53:58.884Z,21.00
2022-09-14T21:56:27.242Z,23.38
2022-09-14T21:58:55.124Z,23.34
2022-09-14T22:01:22.005Z,23.94
2022-09-14T22:03:50.432Z,23.85
2022-09-14T22:06:17.047Z,22.63
2022-09-14T22:08:43.687Z,21.26
2022-09-14T22:11:15.457Z,21.79
2022-09-14T22:13:41.864Z,22.01
2022-09-14T22:16:08.293Z,25.05
2022-09-14T22:18:36.640Z,26.73
2022-09-14T22:21:03.239Z,23.92
2022-09-14T22:23:29.666Z,21.42
2022-09-14T22:25:56.024Z,19.09
2022-09-14T22:28:22.475Z,18.25
2022-09-14T22:30:53.895Z,16.30
2022-09-14T22:33:22.231Z,15.44
2022-09-14T22:35:53.006Z,14.20
2022-09-14T22:38:20.812Z,13.31
2022-09-14T22:40:58.851Z,12.23
2022-09-14T22:43:25.625Z,12.37
2022-09-14T22:45:52.146Z,12.02
2022-09-14T22:48:18.663Z,11.45
2022-09-14T22:50:49.409Z,11.66
2022-09-14T22:53:16.161Z,13.49
2022-09-14T22:55:43.290Z,11.49
2022-09-14T22:58:09.835Z,11.68
2022-09-14T23:00:37.299Z,12.07
2022-09-14T23:03:03.860Z,9.84
2022-09-14T23:05:30.258Z,9.19
2022-09-14T23:07:57.108Z,9.50
2022-09-14T23:10:23.639Z,9.46
2022-09-14T23:12:50.359Z,10.70
2022-09-14T23:15:16.920Z,12.76
2022-09-14T23:17:43.267Z,14.96
2022-09-14T23:20:09.861Z,17.30
2022-09-14T23:22:36.326Z,20.17
2022-09-14T23:25:03.046Z,27.80
2022-09-14T23:27:29.473Z,30.87
2022-09-14T23:29:55.881Z,45.69
2022-09-14T23:32:22.282Z,51.75
2022-09-14T23:34:48.747Z,41.61
2022-09-14T23:37:15.117Z,41.15
2022-09-14T23:39:41.503Z,42.47
2022-09-14T23:42:08.449Z,43.78
2022-09-14T23:44:34.988Z,42.21
2022-09-14T23:47:01.386Z,37.70
2022-09-14T23:49:27.775Z,36.15
2022-09-14T23:51:54.170Z,42.70
2022-09-14T23:54:20.645Z,50.03
2022-09-14T23:56:47.148Z,45.83
2022-09-14T23:59:14.484Z,50.51
